Latest Weather Observations for Middle Percy Island

IDQ60801

Issued at 2:02 pm EST Wednesday 31 August 2016 (issued every 30 minutes, with the page automatically refreshed every 10 minutes)

About weather observations | Map of weather stations | Latest weather observations for QLD | Other Formats
Station Details ID: 200001 Name: MIDDLE PERCY ISLAND Lat: -21.66 Lon: 150.27 Height: 208.7 m
Data from the previous 72 hours. | See also: Recent months at Middle Percy Island
Date/Time
EST
Temp
°C
App
Temp
°C
Dew
Point
°C
Rel
Hum
%
Delta-T
°C
Wind Press
QNH
hPa
Press
MSL
hPa
Rain since
9am
mm
Dir  Spd
km/h
Gust
km/h
Spd
kts
Gust
kts
31/02:00pm 23.0 - - - - SE 22 28 12 15 1021.9 1021.3 0.0
31/01:30pm 22.4 - - - - SE 19 26 10 14 1022.3 1021.7 0.0
31/01:00pm 23.1 - - - - SE 15 22 8 12 1022.5 1021.9 0.0
31/12:30pm 22.5 - - - - SE 13 19 7 10 1023.0 1022.4 0.0
31/12:00pm 22.3 - - - - SE 15 20 8 11 1023.4 1022.8 0.0
31/11:30am 21.5 - - - - SE 13 19 7 10 1023.9 1023.3 0.0
31/11:00am 21.8 - - - - SE 17 22 9 12 1024.2 1023.6 0.0
31/10:30am 21.5 - - - - SE 17 22 9 12 1024.4 1023.8 0.0
31/10:00am 21.6 - - - - SE 13 20 7 11 1024.7 1024.1 0.0
31/09:30am 21.4 - - - - SE 17 22 9 12 1024.9 1024.3 0.0
31/09:00am 20.9 - - - - SE 15 20 8 11 1024.9 1024.3 0.0
31/08:30am 20.4 - - - - SE 17 22 9 12 1024.9 1024.3 0.0
31/08:00am 20.2 - - - - SE 13 20 7 11 1024.8 1024.2 0.0
31/07:30am 20.2 - - - - ESE 7 13 4 7 1024.4 1023.8 0.0
31/07:00am 19.8 - - - - ESE 6 9 3 5 1024.2 1023.6 0.0
31/06:30am 19.9 - - - - E 9 17 5 9 1023.9 1023.3 0.0
31/06:00am 19.9 - - - - ENE 13 24 7 13 1023.5 1022.9 0.0
31/05:30am 19.3 - - - - E 9 22 5 12 1023.2 1022.6 0.0
31/05:00am 19.3 - - - - E 6 13 3 7 1022.9 1022.3 0.0
31/04:30am 19.1 - - - - E 7 13 4 7 1022.9 1022.3 0.0
31/04:00am 19.4 - - - - ENE 11 17 6 9 1023.0 1022.4 0.0
31/03:30am 19.5 - - - - E 6 13 3 7 1023.1 1022.5 0.0
31/03:00am 19.7 - - - - E 9 17 5 9 1023.4 1022.8 0.0
31/02:30am 19.7 - - - - ENE 13 24 7 13 1023.7 1023.1 0.0
31/02:00am 19.6 - - - - ESE 15 19 8 10 1023.9 1023.3 0.0
31/01:30am 19.3 - - - - ESE 13 19 7 10 1024.0 1023.4 0.0
31/01:00am 19.6 - - - - ESE 11 19 6 10 1024.4 1023.8 0.0
31/12:30am 19.6 - - - - E 9 22 5 12 1024.7 1024.1 0.0
31/12:00am 19.8 - - - - ESE 20 32 11 17 1024.8 1024.2 0.0
 
Date/Time
EST
Temp
°C
App
Temp
°C
Dew
Point
°C
Rel
Hum
%
Delta-T
°C
Wind Press
QNH
hPa
Press
MSL
hPa
Rain since
9am
mm
Dir  Spd
km/h
Gust
km/h
Spd
kts
Gust
kts
30/11:30pm 19.5 - - - - ESE 15 22 8 12 1024.8 1024.2 0.0
30/11:00pm 19.6 - - - - ESE 19 28 10 15 1025.0 1024.4 0.0
30/10:30pm 19.9 - - - - SE 20 33 11 18 1025.1 1024.5 0.0
30/10:00pm 19.8 - - - - SE 9 19 5 10 1025.2 1024.7 0.0
30/09:30pm 19.7 - - - - ESE 13 20 7 11 1025.4 1024.8 0.0
30/09:00pm 19.5 - - - - ESE 17 28 9 15 1025.6 1025.0 0.0
30/08:30pm 20.1 - - - - ESE 17 26 9 14 1025.1 1024.5 0.0
30/08:00pm 20.0 - - - - ESE 17 32 9 17 1025.0 1024.4 0.0
30/07:30pm 20.1 - - - - ESE 9 19 5 10 1024.9 1024.3 0.0
30/07:00pm 19.5 - - - - SE 22 35 12 19 1024.4 1023.8 0.0
30/06:30pm 19.4 - - - - SE 22 28 12 15 1024.0 1023.4 0.0
30/06:00pm 20.0 - - - - SE 20 33 11 18 1023.7 1023.1 0.0
30/05:30pm 20.1 - - - - SE 26 32 14 17 1023.5 1022.9 0.0
30/05:00pm 20.3 - - - - SE 20 32 11 17 1023.2 1022.6 0.0
30/04:30pm 20.8 - - - - ESE 17 28 9 15 1023.0 1022.4 0.0
30/04:00pm 21.3 - - - - ESE 17 26 9 14 1022.8 1022.2 0.0
30/03:30pm 21.4 - - - - SE 19 24 10 13 1022.9 1022.3 0.0
30/03:00pm 21.1 - - - - SE 22 32 12 17 1023.1 1022.5 0.0
30/02:30pm 21.8 - - - - SE 20 30 11 16 1023.4 1022.8 0.0
30/02:00pm 22.1 - - - - SE 22 30 12 16 1023.7 1023.1 0.0
30/01:30pm 22.6 - - - - ESE 24 33 13 18 1023.8 1023.2 0.0
30/01:00pm 21.8 - - - - SE 20 32 11 17 1024.2 1023.6 0.0
30/12:30pm 21.8 - - - - ESE 19 26 10 14 1024.7 1024.1 0.0
30/12:00pm 22.0 - - - - SE 22 28 12 15 1025.1 1024.5 0.0
30/11:30am 21.8 - - - - SE 20 32 11 17 1025.4 1024.8 0.0
30/11:00am 22.6 - - - - E 13 28 7 15 1025.4 1024.8 0.0
30/10:30am 22.2 - - - - ESE 17 28 9 15 1025.6 1025.0 0.0
30/10:00am 21.8 - - - - ESE 15 28 8 15 1025.9 1025.3 0.0
30/09:30am 21.4 - - - - E 17 32 9 17 1025.8 1025.2 0.0
30/09:00am 21.0 - - - - E 11 28 6 15 1025.7 1025.1 0.0
30/08:30am 20.7 - - - - E 13 22 7 12 1025.5 1024.9 0.0
30/08:00am 20.2 - - - - ESE 11 20 6 11 1025.1 1024.5 0.0
30/07:30am 20.2 - - - - E 13 26 7 14 1024.5 1023.9 0.0
30/07:00am 19.9 - - - - ENE 17 32 9 17 1024.4 1023.8 0.0
30/06:30am 19.7 - - - - ESE 11 24 6 13 1024.1 1023.5 0.0
30/06:00am 19.3 - - - - ESE 11 30 6 16 1023.7 1023.1 0.0
30/05:30am 19.4 - - - - ESE 17 35 9 19 1023.3 1022.7 0.0
30/05:00am 19.5 - - - - ESE 15 24 8 13 1023.0 1022.4 0.0
30/04:30am 19.3 - - - - ESE 24 35 13 19 1022.8 1022.2 0.0
30/04:00am 19.2 - - - - ESE 26 37 14 20 1022.7 1022.1 0.0
30/03:30am 19.1 - - - - ESE 22 35 12 19 1022.5 1021.9 0.0
30/03:00am 19.1 - - - - ESE 24 35 13 19 1022.5 1021.9 0.0
30/02:30am 19.3 - - - - ESE 20 33 11 18 1022.7 1022.1 0.0
30/02:00am 19.2 - - - - SE 30 43 16 23 1022.7 1022.1 0.0
30/01:30am 19.3 - - - - ESE 30 43 16 23 1022.8 1022.2 0.0
30/01:00am 19.3 - - - - ESE 33 44 18 24 1023.0 1022.4 0.0
30/12:30am 19.3 - - - - ESE 26 39 14 21 1023.1 1022.5 0.0
30/12:00am 19.1 - - - - ESE 26 35 14 19 1023.2 1022.6 0.0
 
Date/Time
EST
Temp
°C
App
Temp
°C
Dew
Point
°C
Rel
Hum
%
Delta-T
°C
Wind Press
QNH
hPa
Press
MSL
hPa
Rain since
9am
mm
Dir  Spd
km/h
Gust
km/h
Spd
kts
Gust
kts
29/11:30pm 19.1 - - - - ESE 30 39 16 21 1023.2 1022.6 0.0
29/11:00pm 19.3 - - - - ESE 24 39 13 21 1023.5 1022.9 0.0
29/10:30pm 18.9 - - - - ESE 28 39 15 21 1023.7 1023.1 0.0
29/10:00pm 18.8 - - - - ESE 24 35 13 19 1023.8 1023.2 0.0
29/09:30pm 18.8 - - - - ESE 24 37 13 20 1024.0 1023.4 0.0
29/09:00pm 18.9 - - - - ESE 24 35 13 19 1024.2 1023.6 0.0
29/08:30pm 19.0 - - - - ESE 24 35 13 19 1024.2 1023.6 0.0
29/08:00pm 19.0 - - - - ESE 24 35 13 19 1024.1 1023.5 0.0
29/07:30pm 19.0 - - - - ESE 24 35 13 19 1023.8 1023.2 0.0
29/07:00pm 18.9 - - - - SE 26 39 14 21 1023.5 1022.9 0.0
29/06:30pm 18.9 - - - - SE 24 33 13 18 1023.5 1022.9 0.0
29/06:00pm 19.1 - - - - SE 26 37 14 20 1023.3 1022.7 0.0
29/05:30pm 19.2 - - - - SE 24 39 13 21 1022.9 1022.3 0.0
29/05:00pm 19.5 - - - - SE 24 35 13 19 1022.8 1022.2 0.0
29/04:30pm 20.1 - - - - SE 26 41 14 22 1022.8 1022.2 0.0
29/04:00pm 20.2 - - - - SE 26 37 14 20 1022.6 1022.0 0.0
29/03:30pm 20.6 - - - - SE 24 37 13 20 1022.6 1022.0 0.0
29/03:00pm 21.0 - - - - SE 26 35 14 19 1022.8 1022.2 0.0
29/02:30pm 21.8 - - - - SE 24 35 13 19 1022.9 1022.3 0.0
29/02:00pm 21.7 - - - - SE 28 33 15 18 1023.0 1022.4 0.0
29/01:30pm 22.5 - - - - SE 24 33 13 18 1023.2 1022.6 0.0
29/01:00pm 21.6 - - - - ESE 24 33 13 18 1023.3 1022.7 0.0
29/12:30pm 21.6 - - - - ESE 28 37 15 20 1023.6 1023.0 0.0
29/12:00pm 21.1 - - - - SE 26 33 14 18 1023.8 1023.2 0.0
29/11:30am 21.5 - - - - SSE 19 28 10 15 1024.2 1023.6 0.0
29/11:00am 19.6 - - - - SSE 17 22 9 12 1024.4 1023.8 0.0
29/10:30am 20.4 - - - - SE 17 24 9 13 1024.6 1024.0 0.0
29/10:00am 19.1 - - - - SE 15 20 8 11 1024.7 1024.1 0.0
29/09:30am 20.3 - - - - SE 19 26 10 14 1024.7 1024.1 0.0
29/09:00am 20.8 - - - - ESE 19 28 10 15 1024.6 1024.0 0.0
29/08:30am 20.1 - - - - ESE 19 28 10 15 1024.5 1023.9 0.0
29/08:00am 19.5 - - - - SE 20 30 11 16 1024.3 1023.7 0.0
29/07:30am 19.7 - - - - SE 13 24 7 13 1024.0 1023.4 0.0
29/07:00am 18.5 - - - - SE 19 28 10 15 1023.5 1022.9 0.0
29/06:30am 18.0 - - - - ESE 9 19 5 10 1023.1 1022.5 0.0
29/06:00am 18.2 - - - - ESE 15 30 8 16 1022.8 1022.2 0.0
29/05:30am 17.7 - - - - ESE 9 15 5 8 1022.5 1021.9 0.0
29/05:00am 17.8 - - - - ESE 17 30 9 16 1022.3 1021.7 0.0
29/04:30am 18.0 - - - - ESE 17 26 9 14 1022.1 1021.5 0.0
29/04:00am 18.1 - - - - SE 20 28 11 15 1021.9 1021.3 0.0
29/03:30am 18.0 - - - - ESE 15 30 8 16 1021.8 1021.2 0.0
29/03:00am 17.9 - - - - E 11 22 6 12 1021.8 1021.2 0.0
29/02:30am 17.8 - - - - E 13 22 7 12 1021.9 1021.3 0.0
29/02:00am 17.4 - - - - ESE 11 24 6 13 1022.1 1021.5 0.0
29/01:30am 17.2 - - - - ESE 13 19 7 10 1022.6 1022.0 0.0
29/01:00am 17.3 - - - - E 11 17 6 9 1022.7 1022.1 0.0
29/12:30am 16.9 - - - - ESE 11 19 6 10 1022.6 1022.0 0.0
29/12:00am 17.1 - - - - E 11 22 6 12 1022.6 1022.0 0.0
 
Date/Time
EST
Temp
°C
App
Temp
°C
Dew
Point
°C
Rel
Hum
%
Delta-T
°C
Wind Press
QNH
hPa
Press
MSL
hPa
Rain since
9am
mm
Dir  Spd
km/h
Gust
km/h
Spd
kts
Gust
kts
28/11:30pm 16.9 - - - - ESE 11 24 6 13 1022.6 1022.0 0.0
28/11:00pm 16.9 - - - - ESE 13 24 7 13 1022.7 1022.1 0.0
28/10:30pm 17.0 - - - - ESE 15 24 8 13 1022.7 1022.1 0.0
28/10:00pm 16.7 - - - - ESE 11 19 6 10 1022.9 1022.3 0.0
28/09:30pm 16.9 - - - - ESE 20 32 11 17 1023.0 1022.4 0.0
28/09:00pm 16.9 - - - - SE 20 30 11 16 1022.9 1022.3 0.0
28/08:30pm 16.9 - - - - SE 20 35 11 19 1023.0 1022.4 0.0
28/08:00pm 16.9 - - - - SE 20 32 11 17 1022.8 1022.2 0.0
28/07:30pm 16.8 - - - - SE 20 32 11 17 1022.6 1022.0 0.0
28/07:00pm 16.6 - - - - SE 22 30 12 16 1022.3 1021.7 0.0
28/06:30pm 16.4 - - - - SSE 22 32 12 17 1022.0 1021.4 0.0
28/06:00pm 16.8 - - - - SE 19 26 10 14 1022.0 1021.4 0.0
28/05:30pm 17.1 - - - - SE 17 28 9 15 1021.9 1021.3 0.0
28/05:00pm 17.7 - - - - SE 19 26 10 14 1021.7 1021.1 0.0
28/04:30pm 18.3 - - - - SE 19 28 10 15 1021.7 1021.1 0.0
28/04:00pm 18.8 - - - - SE 19 30 10 16 1021.6 1021.0 0.0
28/03:30pm 18.9 - - - - SE 19 26 10 14 1021.5 1020.9 0.0
28/03:00pm 19.1 - - - - SE 17 24 9 13 1021.6 1021.0 0.0
28/02:30pm 19.4 - - - - SE 20 28 11 15 1021.6 1021.0 0.0

Other Formats:

Comma delimited format used in spreadsheet applications
http://www.bom.gov.au/fwo/IDQ60801/IDQ60801.94372.axf

JavaScript Object Notation format (JSON) in row-major order
http://www.bom.gov.au/fwo/IDQ60801/IDQ60801.94372.json